Time;durP1;ratioP1;P1;durP2;ratioP2;P2;SDS_P1;SDS_P2;PMS_P1;PMS_P2;Temp;Humidity;BMP_temperature;BMP_pressure;BME280_temperature;BME280_humidity;BME280_pressure;Samples;Min_cycle;Max_cycle;Signal;HPM_P1;HPM_P2
2024/01/16 00:00:27;;;;;;;9.53;2.73;;;;;;;;;;5051405;28;20523;-61
2024/01/16 00:02:52;;;;;;;7.95;2.50;;;;;;;;;;5052041;28;20899;-61
2024/01/16 00:05:17;;;;;;;8.27;2.60;;;;;;;;;;5051761;28;20948;-61
2024/01/16 00:07:43;;;;;;;7.30;2.33;;;;;;;;;;5051145;28;20406;-61
2024/01/16 00:10:08;;;;;;;9.60;2.40;;;;;;;;;;5051584;28;20478;-61
2024/01/16 00:12:33;;;;;;;10.20;2.50;;;;;;;;;;5052078;28;20382;-61
2024/01/16 00:14:59;;;;;;;8.17;2.50;;;;;;;;;;5051250;28;20452;-61
2024/01/16 00:17:24;;;;;;;9.20;2.57;;;;;;;;;;5051266;28;20481;-61
2024/01/16 00:19:49;;;;;;;9.40;2.77;;;;;;;;;;5051290;28;20390;-61
2024/01/16 00:22:15;;;;;;;7.63;2.67;;;;;;;;;;5051149;28;20401;-61
2024/01/16 00:24:40;;;;;;;11.67;3.10;;;;;;;;;;5051666;28;20535;-60
2024/01/16 00:27:05;;;;;;;10.00;2.90;;;;;;;;;;5050513;28;20398;-61
2024/01/16 00:29:31;;;;;;;11.20;3.00;;;;;;;;;;5051745;28;20406;-61
2024/01/16 00:31:56;;;;;;;9.93;2.83;;;;;;;;;;5051468;28;20402;-61
2024/01/16 00:34:21;;;;;;;9.13;3.00;;;;;;;;;;5050695;28;20391;-61
2024/01/16 00:36:46;;;;;;;7.13;2.60;;;;;;;;;;5051508;28;20496;-61
2024/01/16 00:39:13;;;;;;;8.30;2.30;;;;;;;;;;5051033;28;20459;-61
2024/01/16 00:41:38;;;;;;;8.45;2.90;;;;;;;;;;5050675;28;20416;-61
2024/01/16 00:44:03;;;;;;;8.93;2.60;;;;;;;;;;5050968;28;20401;-61
2024/01/16 00:46:29;;;;;;;8.53;2.40;;;;;;;;;;5051271;28;20444;-61
2024/01/16 00:48:54;;;;;;;7.83;2.10;;;;;;;;;;5050842;28;20398;-61
2024/01/16 00:51:19;;;;;;;6.90;2.20;;;;;;;;;;5050729;28;20458;-61
2024/01/16 00:53:45;;;;;;;7.33;1.90;;;;;;;;;;5051216;28;20390;-61
2024/01/16 00:56:10;;;;;;;9.43;2.10;;;;;;;;;;5049473;28;20726;-61
2024/01/16 00:58:35;;;;;;;8.37;2.20;;;;;;;;;;5051062;28;20390;-61
2024/01/16 01:01:01;;;;;;;8.33;2.20;;;;;;;;;;5050545;28;20477;-61
2024/01/16 01:03:26;;;;;;;8.60;2.10;;;;;;;;;;5050446;28;20476;-61
2024/01/16 01:05:51;;;;;;;8.40;2.20;;;;;;;;;;5050673;28;20397;-60
2024/01/16 01:08:17;;;;;;;7.53;2.00;;;;;;;;;;5050308;28;20429;-61
2024/01/16 01:10:42;;;;;;;7.87;1.90;;;;;;;;;;5050297;28;20476;-60
2024/01/16 01:13:07;;;;;;;10.32;2.05;;;;;;;;;;5050514;28;20749;-61
2024/01/16 01:15:33;;;;;;;10.37;2.20;;;;;;;;;;5050863;28;20961;-61
2024/01/16 01:17:58;;;;;;;8.93;2.20;;;;;;;;;;5049965;28;20397;-60
2024/01/16 01:20:23;;;;;;;8.93;2.00;;;;;;;;;;5050551;28;20393;-61
2024/01/16 01:22:48;;;;;;;7.30;2.22;;;;;;;;;;5050805;28;20389;-61
2024/01/16 01:25:14;;;;;;;8.93;1.80;;;;;;;;;;5049687;28;20405;-61
2024/01/16 01:27:39;;;;;;;8.87;2.30;;;;;;;;;;5050659;28;20952;-61
2024/01/16 01:30:05;;;;;;;7.77;1.90;;;;;;;;;;5049832;28;20959;-61
2024/01/16 01:32:31;;;;;;;8.85;2.25;;;;;;;;;;5050656;28;20402;-61
2024/01/16 01:34:56;;;;;;;8.33;2.10;;;;;;;;;;5050853;28;20531;-61
2024/01/16 01:37:21;;;;;;;7.67;2.07;;;;;;;;;;5049420;28;20385;-61
2024/01/16 01:39:46;;;;;;;7.10;1.70;;;;;;;;;;5050803;28;20575;-61
2024/01/16 01:42:12;;;;;;;9.97;2.03;;;;;;;;;;5050143;28;20781;-61
2024/01/16 01:44:37;;;;;;;8.27;1.93;;;;;;;;;;5049925;28;20402;-61
2024/01/16 01:47:02;;;;;;;7.30;1.87;;;;;;;;;;5050311;28;20398;-62
2024/01/16 01:49:28;;;;;;;6.47;1.90;;;;;;;;;;5050500;28;20393;-61
2024/01/16 01:51:54;;;;;;;7.00;1.73;;;;;;;;;;5049858;28;20400;-61
2024/01/16 01:54:19;;;;;;;5.53;1.50;;;;;;;;;;5050282;28;20400;-61
2024/01/16 01:56:44;;;;;;;6.60;1.60;;;;;;;;;;5050603;28;20428;-61
2024/01/16 01:59:10;;;;;;;8.27;1.60;;;;;;;;;;5049127;28;20425;-61
2024/01/16 02:01:35;;;;;;;7.40;1.83;;;;;;;;;;5050530;28;20938;-61
2024/01/16 02:04:00;;;;;;;7.17;1.70;;;;;;;;;;5050340;28;20405;-61
2024/01/16 02:06:25;;;;;;;5.90;1.73;;;;;;;;;;5069447;28;20410;-61
2024/01/16 02:08:51;;;;;;;8.03;1.73;;;;;;;;;;5031928;28;20415;-61
2024/01/16 02:11:16;;;;;;;8.13;1.80;;;;;;;;;;5024000;28;20391;-61
2024/01/16 02:13:41;;;;;;;8.05;1.90;;;;;;;;;;5023540;28;20399;-61
2024/01/16 02:16:17;;;;;;;6.63;1.80;;;;;;;;;;5024202;28;20406;-61
2024/01/16 02:18:42;;;;;;;6.43;1.75;;;;;;;;;;5026776;28;20770;-61
2024/01/16 02:21:07;;;;;;;6.50;1.70;;;;;;;;;;5015075;28;20419;-62
2024/01/16 02:23:32;;;;;;;7.50;1.93;;;;;;;;;;5040791;28;20402;-61
2024/01/16 02:25:58;;;;;;;7.60;1.90;;;;;;;;;;5022728;28;20406;-61
2024/01/16 02:28:23;;;;;;;6.83;1.90;;;;;;;;;;5022662;28;20395;-61
2024/01/16 02:30:48;;;;;;;8.57;2.17;;;;;;;;;;5024369;28;20465;-61
2024/01/16 02:33:14;;;;;;;7.63;1.80;;;;;;;;;;5023739;28;20419;-61
2024/01/16 02:35:39;;;;;;;7.63;1.73;;;;;;;;;;5042495;28;20873;-61
2024/01/16 02:38:04;;;;;;;7.53;1.83;;;;;;;;;;5040064;28;21212;-61
2024/01/16 02:40:30;;;;;;;8.03;2.07;;;;;;;;;;5034613;28;20401;-61
2024/01/16 02:42:55;;;;;;;8.00;2.10;;;;;;;;;;5019835;28;20465;-61
2024/01/16 02:45:20;;;;;;;8.87;2.30;;;;;;;;;;5018205;28;20392;-61
2024/01/16 02:47:46;;;;;;;8.93;2.27;;;;;;;;;;5038211;28;20401;-61
2024/01/16 02:50:11;;;;;;;7.17;2.40;;;;;;;;;;5036846;28;20402;-61
2024/01/16 02:52:36;;;;;;;10.52;2.28;;;;;;;;;;5024699;28;20491;-61
2024/01/16 02:55:02;;;;;;;5.87;2.33;;;;;;;;;;5024150;28;20409;-61
2024/01/16 02:57:27;;;;;;;9.23;3.10;;;;;;;;;;5043416;28;20439;-61
2024/01/16 02:59:52;;;;;;;6.87;2.70;;;;;;;;;;5042380;28;20439;-61
2024/01/16 03:02:17;;;;;;;8.13;2.83;;;;;;;;;;5019667;28;20399;-61
2024/01/16 03:04:43;;;;;;;8.37;3.10;;;;;;;;;;5015268;28;20411;-61
2024/01/16 03:07:08;;;;;;;7.17;3.30;;;;;;;;;;5015843;28;21305;-61
2024/01/16 03:09:33;;;;;;;10.10;3.60;;;;;;;;;;5027085;28;20403;-61
2024/01/16 03:11:59;;;;;;;8.63;3.55;;;;;;;;;;5050575;28;20414;-61
2024/01/16 03:14:24;;;;;;;9.90;3.20;;;;;;;;;;5052369;28;20758;-61
2024/01/16 03:16:50;;;;;;;6.97;3.10;;;;;;;;;;5038615;28;20422;-61
2024/01/16 03:19:15;;;;;;;8.70;3.30;;;;;;;;;;5045505;28;20464;-61
2024/01/16 03:21:41;;;;;;;6.50;3.27;;;;;;;;;;5052928;28;20966;-61
2024/01/16 03:24:06;;;;;;;9.80;3.80;;;;;;;;;;5051670;28;20827;-62
2024/01/16 03:26:32;;;;;;;9.33;3.47;;;;;;;;;;5052885;28;20393;-61
2024/01/16 03:28:57;;;;;;;8.02;3.70;;;;;;;;;;5052597;28;20463;-61
2024/01/16 03:31:23;;;;;;;8.00;3.60;;;;;;;;;;5051882;28;20382;-61
2024/01/16 03:33:48;;;;;;;8.25;3.50;;;;;;;;;;5052706;28;20983;-61
2024/01/16 03:36:13;;;;;;;9.87;3.93;;;;;;;;;;5052361;28;20485;-61
2024/01/16 03:38:39;;;;;;;8.73;3.60;;;;;;;;;;5051873;28;20393;-61
2024/01/16 03:41:06;;;;;;;8.48;3.55;;;;;;;;;;5034387;28;20424;-61
2024/01/16 03:43:32;;;;;;;6.65;3.10;;;;;;;;;;5034945;28;20408;-61
2024/01/16 03:45:57;;;;;;;8.65;3.55;;;;;;;;;;5051717;28;20417;-61
2024/01/16 03:48:23;;;;;;;7.67;3.10;;;;;;;;;;5052188;28;20925;-61
2024/01/16 03:50:48;;;;;;;8.53;3.20;;;;;;;;;;5051616;28;20405;-61
2024/01/16 03:53:13;;;;;;;8.10;2.87;;;;;;;;;;5052032;28;20408;-61
2024/01/16 03:55:39;;;;;;;6.40;3.03;;;;;;;;;;5052321;28;20386;-61
2024/01/16 03:58:04;;;;;;;8.60;3.17;;;;;;;;;;5051027;28;20393;-62
2024/01/16 04:00:29;;;;;;;7.33;3.03;;;;;;;;;;5051760;28;20389;-61
2024/01/16 04:02:54;;;;;;;7.07;3.00;;;;;;;;;;5052418;28;20412;-61
2024/01/16 04:05:20;;;;;;;8.07;3.63;;;;;;;;;;5050737;28;20444;-61
2024/01/16 04:07:45;;;;;;;9.67;3.83;;;;;;;;;;5052192;28;20390;-61
2024/01/16 04:10:10;;;;;;;9.37;3.40;;;;;;;;;;5051357;28;20405;-62
2024/01/16 04:12:35;;;;;;;7.87;3.80;;;;;;;;;;5050846;28;20473;-61
2024/01/16 04:15:01;;;;;;;8.03;3.33;;;;;;;;;;5051365;28;20397;-62
2024/01/16 04:17:26;;;;;;;9.03;3.60;;;;;;;;;;5051903;28;20413;-61
2024/01/16 04:19:52;;;;;;;7.43;3.13;;;;;;;;;;5051041;28;20393;-61
2024/01/16 04:22:17;;;;;;;8.93;3.30;;;;;;;;;;5051350;28;21027;-61
2024/01/16 04:24:42;;;;;;;9.90;3.85;;;;;;;;;;5051911;28;20393;-61
2024/01/16 04:27:10;;;;;;;9.23;3.60;;;;;;;;;;5049634;28;21344;-61
2024/01/16 04:29:36;;;;;;;9.23;3.67;;;;;;;;;;5051404;28;20920;-61
2024/01/16 04:32:01;;;;;;;7.72;2.90;;;;;;;;;;5050381;28;20408;-62
2024/01/16 04:34:26;;;;;;;7.03;2.40;;;;;;;;;;5050756;28;20425;-61
2024/01/16 04:36:51;;;;;;;6.77;2.20;;;;;;;;;;5051721;28;20405;-61
2024/01/16 04:39:17;;;;;;;5.20;1.97;;;;;;;;;;5050876;28;20401;-61
2024/01/16 04:41:42;;;;;;;5.57;2.03;;;;;;;;;;5050728;28;20401;-61
2024/01/16 04:44:08;;;;;;;4.30;1.50;;;;;;;;;;5050743;28;20429;-62
2024/01/16 04:46:33;;;;;;;5.27;1.73;;;;;;;;;;5051308;28;20401;-61
2024/01/16 04:48:58;;;;;;;5.23;1.80;;;;;;;;;;5050923;28;20423;-61
2024/01/16 04:51:24;;;;;;;5.97;1.50;;;;;;;;;;5050845;28;20503;-61
2024/01/16 04:53:49;;;;;;;4.17;1.37;;;;;;;;;;5033505;28;20496;-61
2024/01/16 04:56:14;;;;;;;4.90;1.50;;;;;;;;;;5050056;28;20527;-61
2024/01/16 04:58:40;;;;;;;4.40;1.60;;;;;;;;;;5051120;28;20551;-61
2024/01/16 05:01:05;;;;;;;5.97;1.70;;;;;;;;;;5049781;28;20407;-61
2024/01/16 05:03:30;;;;;;;5.40;1.80;;;;;;;;;;5051332;28;20448;-61
2024/01/16 05:05:56;;;;;;;6.60;2.20;;;;;;;;;;5050902;28;20401;-61
2024/01/16 05:08:22;;;;;;;7.22;1.90;;;;;;;;;;5049860;28;20423;-61
2024/01/16 05:10:47;;;;;;;7.17;1.90;;;;;;;;;;5051101;28;20389;-61
2024/01/16 05:13:12;;;;;;;7.50;2.30;;;;;;;;;;5050393;28;20405;-62
2024/01/16 05:15:38;;;;;;;7.00;2.50;;;;;;;;;;5049939;28;20398;-61
2024/01/16 05:18:03;;;;;;;8.17;2.53;;;;;;;;;;5032513;28;20492;-61
2024/01/16 05:20:29;;;;;;;8.60;2.60;;;;;;;;;;5050454;28;20419;-61
2024/01/16 05:22:54;;;;;;;8.43;2.70;;;;;;;;;;5050363;28;20508;-61
2024/01/16 05:25:21;;;;;;;7.20;2.50;;;;;;;;;;5050498;28;20580;-62
2024/01/16 05:27:46;;;;;;;6.97;2.38;;;;;;;;;;5050708;28;20413;-61
2024/01/16 05:30:11;;;;;;;8.30;2.27;;;;;;;;;;5049819;28;20397;-61
2024/01/16 05:32:39;;;;;;;8.05;2.67;;;;;;;;;;5050966;28;20393;-61
2024/01/16 05:35:04;;;;;;;7.68;2.80;;;;;;;;;;5048168;28;20393;-61
2024/01/16 05:37:30;;;;;;;6.90;3.00;;;;;;;;;;5027295;28;20399;-61
2024/01/16 05:39:55;;;;;;;7.63;3.20;;;;;;;;;;5036007;28;20996;-61
2024/01/16 05:42:20;;;;;;;7.60;3.00;;;;;;;;;;5021561;28;20486;-61
2024/01/16 05:44:45;;;;;;;8.30;3.37;;;;;;;;;;5034661;28;20497;-61
2024/01/16 05:47:11;;;;;;;9.07;3.00;;;;;;;;;;5024627;28;20403;-61
2024/01/16 05:49:36;;;;;;;9.27;3.08;;;;;;;;;;5023324;28;20403;-61
2024/01/16 05:52:01;;;;;;;7.03;3.00;;;;;;;;;;5016263;28;20494;-62
2024/01/16 05:54:27;;;;;;;6.73;2.77;;;;;;;;;;5035094;28;20882;-61
2024/01/16 05:56:52;;;;;;;7.43;3.20;;;;;;;;;;5037714;28;20440;-61
2024/01/16 05:59:18;;;;;;;6.57;2.80;;;;;;;;;;5042892;28;20483;-61
2024/01/16 06:01:43;;;;;;;7.63;3.10;;;;;;;;;;5033859;28;20786;-61
2024/01/16 06:04:08;;;;;;;6.83;2.80;;;;;;;;;;5023940;28;20406;-61
2024/01/16 06:06:33;;;;;;;9.07;4.73;;;;;;;;;;5023525;28;20401;-61
2024/01/16 06:09:04;;;;;;;7.57;3.00;;;;;;;;;;5040216;28;20416;-61
2024/01/16 06:11:31;;;;;;;6.87;3.13;;;;;;;;;;5024328;28;20938;-61
2024/01/16 06:13:56;;;;;;;7.13;2.63;;;;;;;;;;5036582;28;21023;-61
2024/01/16 06:16:22;;;;;;;7.97;3.20;;;;;;;;;;5035368;28;20461;-61
2024/01/16 06:18:47;;;;;;;8.10;3.73;;;;;;;;;;5026273;28;20399;-61
2024/01/16 06:21:12;;;;;;;9.67;4.70;;;;;;;;;;5023310;28;20485;-61
2024/01/16 06:23:38;;;;;;;7.67;2.10;;;;;;;;;;5023808;28;20407;-61
2024/01/16 06:26:03;;;;;;;9.53;2.73;;;;;;;;;;5023119;28;20418;-62
2024/01/16 06:28:28;;;;;;;8.83;3.27;;;;;;;;;;5023951;28;20391;-61
2024/01/16 06:30:53;;;;;;;6.60;2.80;;;;;;;;;;5006374;28;20418;-61
2024/01/16 06:33:19;;;;;;;8.17;2.10;;;;;;;;;;5022777;28;20510;-61
2024/01/16 06:35:44;;;;;;;7.78;2.00;;;;;;;;;;5019562;28;20399;-61
2024/01/16 06:38:09;;;;;;;7.63;1.90;;;;;;;;;;5015165;28;20407;-61
2024/01/16 06:40:35;;;;;;;8.77;1.87;;;;;;;;;;5015206;28;20820;-61
2024/01/16 06:43:00;;;;;;;7.90;1.77;;;;;;;;;;5023306;28;20403;-61
2024/01/16 06:45:26;;;;;;;7.00;2.00;;;;;;;;;;5024848;28;20422;-61
2024/01/16 06:47:51;;;;;;;7.38;2.25;;;;;;;;;;5042268;28;20480;-61
2024/01/16 06:50:17;;;;;;;8.50;2.33;;;;;;;;;;5042759;28;20389;-61
2024/01/16 06:52:42;;;;;;;8.17;2.20;;;;;;;;;;5043584;28;20476;-61
2024/01/16 06:55:07;;;;;;;6.83;2.30;;;;;;;;;;5040979;28;20504;-62
2024/01/16 06:57:33;;;;;;;8.07;2.30;;;;;;;;;;5023588;28;20397;-61
2024/01/16 06:59:58;;;;;;;7.80;2.10;;;;;;;;;;5035202;28;20405;-61
2024/01/16 07:02:23;;;;;;;7.83;2.30;;;;;;;;;;5018201;28;20391;-61
2024/01/16 07:04:48;;;;;;;8.93;2.20;;;;;;;;;;5036634;28;20451;-61
2024/01/16 07:07:14;;;;;;;8.20;2.20;;;;;;;;;;5042557;28;20824;-61
2024/01/16 07:09:39;;;;;;;7.07;2.50;;;;;;;;;;5042166;28;20927;-61
2024/01/16 07:12:05;;;;;;;7.20;2.20;;;;;;;;;;5042504;28;20416;-61
2024/01/16 07:14:31;;;;;;;7.43;2.20;;;;;;;;;;5048138;28;20394;-61
2024/01/16 07:16:56;;;;;;;6.47;2.22;;;;;;;;;;5051271;28;20390;-61
2024/01/16 07:19:21;;;;;;;6.40;2.30;;;;;;;;;;5052477;28;20422;-61
2024/01/16 07:21:46;;;;;;;7.17;2.30;;;;;;;;;;5051818;28;20773;-61
2024/01/16 07:24:13;;;;;;;8.87;2.60;;;;;;;;;;5052475;28;20389;-63
2024/01/16 07:26:39;;;;;;;7.40;2.42;;;;;;;;;;5056320;28;20406;-63
2024/01/16 07:29:04;;;;;;;10.17;3.00;;;;;;;;;;5060859;28;20734;-63
2024/01/16 07:31:29;;;;;;;7.85;2.45;;;;;;;;;;5054632;28;20433;-63
2024/01/16 07:33:54;;;;;;;7.63;2.73;;;;;;;;;;5052215;28;20386;-63
2024/01/16 07:36:20;;;;;;;9.30;2.73;;;;;;;;;;5050493;28;20386;-63
2024/01/16 07:38:45;;;;;;;9.50;2.60;;;;;;;;;;5052040;28;20405;-63
2024/01/16 07:41:10;;;;;;;6.22;2.40;;;;;;;;;;5054042;28;20441;-64
2024/01/16 07:43:36;;;;;;;7.67;2.67;;;;;;;;;;5051097;28;20413;-63
2024/01/16 07:46:01;;;;;;;8.13;2.70;;;;;;;;;;5033404;28;20464;-63
2024/01/16 07:48:26;;;;;;;7.78;2.97;;;;;;;;;;5051735;28;20397;-63
2024/01/16 07:50:52;;;;;;;10.60;2.83;;;;;;;;;;5050965;28;21176;-63
2024/01/16 07:53:17;;;;;;;8.67;3.10;;;;;;;;;;5051398;28;20431;-63
2024/01/16 07:55:42;;;;;;;9.17;3.20;;;;;;;;;;5051704;28;20409;-63
2024/01/16 07:58:10;;;;;;;9.87;2.73;;;;;;;;;;5032746;28;20404;-64
2024/01/16 08:00:35;;;;;;;7.65;3.17;;;;;;;;;;5052080;28;20394;-63
2024/01/16 08:03:01;;;;;;;9.47;3.20;;;;;;;;;;5051109;28;20492;-64
2024/01/16 08:05:27;;;;;;;11.17;3.90;;;;;;;;;;5050293;28;20402;-63
2024/01/16 08:07:53;;;;;;;8.25;3.80;;;;;;;;;;5051178;28;20762;-63
2024/01/16 08:10:18;;;;;;;9.30;4.25;;;;;;;;;;5051238;28;20968;-64
2024/01/16 08:12:43;;;;;;;9.63;3.90;;;;;;;;;;5050742;28;20401;-64
2024/01/16 08:15:08;;;;;;;11.47;4.50;;;;;;;;;;5050670;28;20405;-63
2024/01/16 08:17:34;;;;;;;10.95;4.60;;;;;;;;;;5051218;28;20472;-63
2024/01/16 08:19:59;;;;;;;12.97;5.10;;;;;;;;;;5049949;28;20448;-63
2024/01/16 08:22:24;;;;;;;11.63;5.10;;;;;;;;;;5046955;28;20691;-63
2024/01/16 08:24:50;;;;;;;14.27;5.40;;;;;;;;;;5049928;28;20896;-63
2024/01/16 08:27:16;;;;;;;10.57;5.37;;;;;;;;;;5050551;28;20393;-64
2024/01/16 08:29:42;;;;;;;12.60;5.57;;;;;;;;;;5051432;28;20402;-63
2024/01/16 08:32:07;;;;;;;13.70;5.85;;;;;;;;;;5050140;28;20473;-64
2024/01/16 08:34:32;;;;;;;11.13;5.50;;;;;;;;;;5051670;28;20397;-63
2024/01/16 08:36:57;;;;;;;12.57;6.27;;;;;;;;;;5051029;28;20400;-63
2024/01/16 08:39:24;;;;;;;13.33;6.00;;;;;;;;;;5049449;28;20400;-63
2024/01/16 08:41:49;;;;;;;17.00;9.07;;;;;;;;;;5051226;28;20423;-63
2024/01/16 08:44:14;;;;;;;14.32;6.68;;;;;;;;;;5050822;28;20492;-63
2024/01/16 08:46:40;;;;;;;12.97;5.67;;;;;;;;;;5050651;28;20393;-63
2024/01/16 08:49:05;;;;;;;12.87;5.13;;;;;;;;;;5050758;28;20394;-64
2024/01/16 08:51:30;;;;;;;13.65;5.65;;;;;;;;;;5051221;28;20396;-63
2024/01/16 08:53:56;;;;;;;14.40;5.37;;;;;;;;;;5046850;28;20433;-63
2024/01/16 08:56:21;;;;;;;16.10;5.60;;;;;;;;;;5050454;28;20447;-63
2024/01/16 08:58:47;;;;;;;12.40;5.33;;;;;;;;;;5051284;28;20443;-63
2024/01/16 09:01:12;;;;;;;12.53;5.40;;;;;;;;;;5050018;28;20397;-63
2024/01/16 09:03:37;;;;;;;14.20;5.27;;;;;;;;;;5051227;28;20404;-63
2024/01/16 09:06:03;;;;;;;12.13;4.65;;;;;;;;;;5050496;28;20431;-63
2024/01/16 09:08:28;;;;;;;11.63;5.00;;;;;;;;;;5049700;28;20443;-63
2024/01/16 09:10:54;;;;;;;11.40;4.50;;;;;;;;;;5050936;28;20407;-63
2024/01/16 09:13:20;;;;;;;12.10;4.40;;;;;;;;;;5050795;28;20526;-63
2024/01/16 09:15:46;;;;;;;12.02;4.65;;;;;;;;;;5050312;28;20402;-64
2024/01/16 09:18:12;;;;;;;11.95;5.05;;;;;;;;;;5049889;28;20390;-64
2024/01/16 09:20:37;;;;;;;10.73;4.40;;;;;;;;;;5050657;28;20980;-63
2024/01/16 09:23:03;;;;;;;12.10;4.40;;;;;;;;;;5048953;28;20390;-64
2024/01/16 09:25:29;;;;;;;10.00;3.95;;;;;;;;;;5050387;28;20466;-64
2024/01/16 09:27:55;;;;;;;12.30;4.40;;;;;;;;;;5050777;28;20485;-63
2024/01/16 09:30:22;;;;;;;11.33;4.07;;;;;;;;;;5049461;28;20513;-64
2024/01/16 09:32:47;;;;;;;13.50;4.53;;;;;;;;;;5050655;28;20417;-63
2024/01/16 09:35:13;;;;;;;10.63;3.90;;;;;;;;;;5050011;28;20428;-64
2024/01/16 09:37:39;;;;;;;11.17;3.87;;;;;;;;;;5049648;28;20955;-63
2024/01/16 09:40:05;;;;;;;9.00;3.58;;;;;;;;;;5050068;28;20873;-64
2024/01/16 09:42:30;;;;;;;12.70;4.03;;;;;;;;;;5049631;28;20405;-64
2024/01/16 09:44:56;;;;;;;10.73;3.83;;;;;;;;;;5032823;28;20401;-64
2024/01/16 09:47:21;;;;;;;10.07;3.80;;;;;;;;;;5032381;28;20443;-64
2024/01/16 09:49:48;;;;;;;9.70;3.67;;;;;;;;;;5049673;28;20427;-64
2024/01/16 09:52:13;;;;;;;10.05;3.92;;;;;;;;;;5049553;28;20760;-64
2024/01/16 09:54:39;;;;;;;9.57;3.77;;;;;;;;;;5050427;28;20389;-64
2024/01/16 09:57:04;;;;;;;8.60;3.57;;;;;;;;;;5049393;28;20404;-64
2024/01/16 09:59:29;;;;;;;10.00;3.60;;;;;;;;;;5032757;28;20421;-64
2024/01/16 10:01:55;;;;;;;11.80;3.50;;;;;;;;;;5032399;28;20443;-64
2024/01/16 10:04:20;;;;;;;10.43;3.47;;;;;;;;;;5030772;28;20813;-64
2024/01/16 10:06:46;;;;;;;12.43;3.27;;;;;;;;;;5050045;28;20417;-64
2024/01/16 10:09:12;;;;;;;9.70;3.35;;;;;;;;;;5049233;28;20396;-64
2024/01/16 10:11:37;;;;;;;10.53;3.37;;;;;;;;;;5049193;28;20472;-64
2024/01/16 10:14:02;;;;;;;9.83;3.70;;;;;;;;;;5048988;28;20493;-64
2024/01/16 10:16:47;;;;;;;9.18;3.05;;;;;;;;;;5032070;28;20397;-63
2024/01/16 10:19:12;;;;;;;8.60;3.10;;;;;;;;;;5048654;28;20393;-63
2024/01/16 10:21:37;;;;;;;10.17;2.93;;;;;;;;;;5050069;28;20414;-64
2024/01/16 10:24:10;;;;;;;8.63;3.23;;;;;;;;;;5031462;28;20905;-64
2024/01/16 10:26:35;;;;;;;10.75;3.47;;;;;;;;;;5048866;28;20905;-65
2024/01/16 10:29:02;;;;;;;8.40;3.20;;;;;;;;;;5049555;28;20409;-65
2024/01/16 10:31:29;;;;;;;8.30;3.05;;;;;;;;;;5052202;28;20405;-65
2024/01/16 10:33:54;;;;;;;10.38;3.33;;;;;;;;;;5052761;28;20901;-64
2024/01/16 10:36:20;;;;;;;9.07;3.30;;;;;;;;;;5052503;28;20446;-65
2024/01/16 10:38:46;;;;;;;11.68;3.40;;;;;;;;;;5060157;28;20408;-64
2024/01/16 10:41:12;;;;;;;11.73;3.20;;;;;;;;;;5066163;28;20402;-65
2024/01/16 10:43:37;;;;;;;8.23;2.67;;;;;;;;;;5073726;28;20387;-65
2024/01/16 10:46:08;;;;;;;7.93;3.00;;;;;;;;;;5052974;28;20421;-65
2024/01/16 10:48:33;;;;;;;6.40;2.95;;;;;;;;;;5053538;28;20476;-65
2024/01/16 10:50:58;;;;;;;7.15;2.90;;;;;;;;;;5053437;28;20528;-66
2024/01/16 10:53:24;;;;;;;8.40;2.60;;;;;;;;;;5033642;28;20394;-64
2024/01/16 10:55:51;;;;;;;7.50;2.90;;;;;;;;;;5055866;28;20406;-65
2024/01/16 10:58:16;;;;;;;9.00;2.80;;;;;;;;;;5073042;28;20556;-66
2024/01/16 11:00:42;;;;;;;7.80;2.97;;;;;;;;;;5070074;28;20899;-66
2024/01/16 11:03:10;;;;;;;7.87;2.80;;;;;;;;;;5034709;28;20402;-65
2024/01/16 11:05:35;;;;;;;7.40;2.90;;;;;;;;;;5052538;28;20413;-65
2024/01/16 11:08:03;;;;;;;7.43;2.80;;;;;;;;;;5047429;28;20413;-65
2024/01/16 11:10:28;;;;;;;9.73;3.05;;;;;;;;;;5052922;28;20907;-66
2024/01/16 11:12:54;;;;;;;6.87;2.70;;;;;;;;;;5053099;28;20406;-66
2024/01/16 11:15:19;;;;;;;7.88;2.72;;;;;;;;;;5034121;28;20421;-65
2024/01/16 11:17:46;;;;;;;8.10;2.90;;;;;;;;;;5052823;28;20408;-65
2024/01/16 11:20:13;;;;;;;8.38;2.70;;;;;;;;;;5052253;28;20975;-66
2024/01/16 11:22:39;;;;;;;8.50;2.50;;;;;;;;;;5034211;28;20429;-65
2024/01/16 11:25:09;;;;;;;8.03;2.73;;;;;;;;;;5034321;28;20425;-65
2024/01/16 11:27:35;;;;;;;8.18;2.60;;;;;;;;;;5052814;28;20401;-65
2024/01/16 11:30:01;;;;;;;8.37;2.53;;;;;;;;;;5033811;28;20463;-65
2024/01/16 11:32:34;;;;;;;7.07;2.47;;;;;;;;;;5052354;28;20397;-66
2024/01/16 11:34:59;;;;;;;6.53;2.60;;;;;;;;;;5052077;28;20401;-66
2024/01/16 11:37:26;;;;;;;7.32;2.60;;;;;;;;;;5051629;28;20392;-65
2024/01/16 11:39:54;;;;;;;7.70;2.50;;;;;;;;;;5051904;28;20800;-66
2024/01/16 11:42:25;;;;;;;11.35;3.40;;;;;;;;;;5051172;28;20397;-65
2024/01/16 11:44:50;;;;;;;6.78;2.85;;;;;;;;;;5052273;28;20496;-65
2024/01/16 11:47:17;;;;;;;7.47;2.97;;;;;;;;;;5051742;28;20484;-65
2024/01/16 11:49:43;;;;;;;7.43;2.85;;;;;;;;;;5033847;28;20405;-65
2024/01/16 11:52:11;;;;;;;7.37;3.10;;;;;;;;;;5051477;28;20393;-65
2024/01/16 11:54:36;;;;;;;11.82;5.00;;;;;;;;;;5034955;28;20394;-65
2024/01/16 11:57:01;;;;;;;19.57;10.10;;;;;;;;;;5051291;28;20390;-65
2024/01/16 11:59:45;;;;;;;6.72;2.50;;;;;;;;;;5052118;28;20929;-65
2024/01/16 12:02:12;;;;;;;6.90;2.60;;;;;;;;;;5051348;28;20428;-65
2024/01/16 12:04:37;;;;;;;13.30;6.43;;;;;;;;;;5051366;28;20436;-65
2024/01/16 12:07:03;;;;;;;10.37;3.43;;;;;;;;;;5051345;28;20397;-65
2024/01/16 12:09:28;;;;;;;13.13;5.93;;;;;;;;;;5051907;28;20393;-65
2024/01/16 12:11:58;;;;;;;11.73;5.33;;;;;;;;;;5050988;28;20405;-67
2024/01/16 12:14:23;;;;;;;8.25;3.25;;;;;;;;;;5051420;28;20861;-66
2024/01/16 12:16:48;;;;;;;8.70;3.43;;;;;;;;;;5052048;28;20421;-66
2024/01/16 12:19:14;;;;;;;9.17;4.40;;;;;;;;;;5050349;28;20452;-66
2024/01/16 12:21:39;;;;;;;10.40;4.55;;;;;;;;;;5051247;28;20401;-67
2024/01/16 12:24:05;;;;;;;6.43;2.40;;;;;;;;;;5051233;28;20389;-64
2024/01/16 12:26:31;;;;;;;9.13;3.87;;;;;;;;;;5032669;28;20420;-64
2024/01/16 12:28:57;;;;;;;9.95;4.63;;;;;;;;;;5051608;28;20935;-65
2024/01/16 12:31:22;;;;;;;8.93;3.43;;;;;;;;;;5050361;28;20381;-65
2024/01/16 12:33:48;;;;;;;9.00;3.03;;;;;;;;;;5051507;28;20402;-65
2024/01/16 12:36:13;;;;;;;8.00;2.67;;;;;;;;;;5050562;28;20893;-64
2024/01/16 12:38:39;;;;;;;8.67;3.37;;;;;;;;;;5032703;28;20422;-65
2024/01/16 12:41:05;;;;;;;6.65;2.42;;;;;;;;;;5050638;28;20397;-64
2024/01/16 12:43:31;;;;;;;10.30;4.20;;;;;;;;;;5051479;28;20397;-64
2024/01/16 12:45:57;;;;;;;7.60;3.15;;;;;;;;;;5032848;28;20510;-64
2024/01/16 12:48:23;;;;;;;8.13;3.88;;;;;;;;;;5050485;28;20382;-64
2024/01/16 12:50:48;;;;;;;8.82;2.63;;;;;;;;;;5051097;28;20402;-64
2024/01/16 12:53:15;;;;;;;7.60;3.43;;;;;;;;;;5049197;28;20504;-64
2024/01/16 12:55:40;;;;;;;8.43;3.33;;;;;;;;;;5051074;28;20397;-64
2024/01/16 12:58:13;;;;;;;7.75;3.00;;;;;;;;;;5050643;28;20487;-64
2024/01/16 13:00:39;;;;;;;7.70;3.45;;;;;;;;;;5050064;28;20935;-64
2024/01/16 13:03:04;;;;;;;8.60;3.10;;;;;;;;;;5050115;28;20393;-64
2024/01/16 13:05:30;;;;;;;9.50;2.90;;;;;;;;;;5032518;28;20429;-63
2024/01/16 13:08:02;;;;;;;5.90;2.57;;;;;;;;;;5031696;28;20413;-64
2024/01/16 13:10:30;;;;;;;7.50;3.20;;;;;;;;;;5030684;28;20526;-64
2024/01/16 13:13:11;;;;;;;7.93;3.13;;;;;;;;;;5041178;28;20405;-63
2024/01/16 13:15:37;;;;;;;7.53;3.00;;;;;;;;;;5048346;28;20390;-64
2024/01/16 13:18:02;;;;;;;12.30;6.03;;;;;;;;;;5049881;28;20394;-63
2024/01/16 13:20:27;;;;;;;9.55;3.10;;;;;;;;;;5049507;28;20468;-63
2024/01/16 13:22:53;;;;;;;8.60;3.40;;;;;;;;;;5050507;28;20409;-63
2024/01/16 13:25:18;;;;;;;9.17;3.07;;;;;;;;;;5050150;28;20452;-63
2024/01/16 13:27:43;;;;;;;9.40;4.30;;;;;;;;;;5049952;28;20400;-63
2024/01/16 13:30:09;;;;;;;8.80;3.20;;;;;;;;;;5050303;28;20397;-63
2024/01/16 13:32:36;;;;;;;9.30;3.73;;;;;;;;;;5050702;28;20401;-63
2024/01/16 13:35:07;;;;;;;7.95;2.83;;;;;;;;;;5049237;28;20397;-63
2024/01/16 13:37:32;;;;;;;8.25;3.22;;;;;;;;;;5050503;28;20783;-63
2024/01/16 13:39:57;;;;;;;8.13;3.10;;;;;;;;;;5050393;28;20389;-63
2024/01/16 13:42:23;;;;;;;8.20;3.93;;;;;;;;;;5049106;28;20790;-63
2024/01/16 13:44:48;;;;;;;7.50;2.93;;;;;;;;;;5032654;28;20928;-63
2024/01/16 13:47:14;;;;;;;7.72;3.10;;;;;;;;;;5050003;28;20485;-63
2024/01/16 13:49:40;;;;;;;7.40;2.80;;;;;;;;;;5049616;28;20401;-62
2024/01/16 13:52:05;;;;;;;8.03;2.93;;;;;;;;;;5049763;28;20396;-63
2024/01/16 13:54:31;;;;;;;7.97;3.30;;;;;;;;;;5050380;28;20752;-63
2024/01/16 13:56:56;;;;;;;7.47;3.10;;;;;;;;;;5049772;28;20766;-63
2024/01/16 13:59:21;;;;;;;7.87;3.00;;;;;;;;;;5032149;28;20431;-64
2024/01/16 14:01:47;;;;;;;9.07;3.20;;;;;;;;;;5050198;28;20393;-64
2024/01/16 14:04:12;;;;;;;7.00;3.13;;;;;;;;;;5061285;28;20429;-64
2024/01/16 14:06:37;;;;;;;7.70;2.60;;;;;;;;;;5074010;28;20470;-64
2024/01/16 14:09:03;;;;;;;8.20;2.90;;;;;;;;;;5073707;28;20474;-64
2024/01/16 14:11:28;;;;;;;9.90;2.70;;;;;;;;;;5073467;28;20913;-64
2024/01/16 14:13:54;;;;;;;7.23;2.70;;;;;;;;;;5074173;28;20411;-64
2024/01/16 14:16:19;;;;;;;6.65;2.92;;;;;;;;;;5073530;28;20398;-64
2024/01/16 14:18:45;;;;;;;8.70;3.00;;;;;;;;;;5064136;28;20401;-64
2024/01/16 14:21:10;;;;;;;6.53;2.73;;;;;;;;;;5052898;28;20409;-64
2024/01/16 14:23:35;;;;;;;7.60;2.63;;;;;;;;;;5054137;28;20481;-63
2024/01/16 14:26:01;;;;;;;6.15;2.72;;;;;;;;;;5052445;28;20406;-64
2024/01/16 14:28:27;;;;;;;10.10;2.97;;;;;;;;;;5036035;28;20440;-64
2024/01/16 14:30:52;;;;;;;7.50;2.75;;;;;;;;;;5050587;28;20904;-64